createdAt,value
2022-12-06T00:01:21.964Z,33.41
2022-12-06T00:02:53.524Z,32.65
2022-12-06T00:04:25.087Z,32.07
2022-12-06T00:05:56.603Z,31.90
2022-12-06T00:07:28.052Z,33.78
2022-12-06T00:09:04.501Z,34.71
2022-12-06T00:10:35.841Z,38.95
2022-12-06T00:12:07.295Z,40.40
2022-12-06T00:13:39.052Z,38.79
2022-12-06T00:15:10.564Z,43.09
2022-12-06T00:16:43.039Z,41.49
2022-12-06T00:18:14.288Z,43.48
2022-12-06T00:19:50.619Z,38.41
2022-12-06T00:21:21.917Z,41.19
2022-12-06T00:22:53.295Z,38.20
2022-12-06T00:24:24.908Z,44.04
2022-12-06T00:25:56.625Z,48.91
2022-12-06T00:27:28.124Z,47.97
2022-12-06T00:28:59.790Z,48.57
2022-12-06T00:30:31.307Z,55.70
2022-12-06T00:32:02.666Z,56.51
2022-12-06T00:33:34.295Z,56.88
2022-12-06T00:35:05.495Z,55.94
2022-12-06T00:36:37.179Z,53.73
2022-12-06T00:38:08.516Z,49.22
2022-12-06T00:39:40.129Z,53.75
2022-12-06T00:41:11.371Z,56.21
2022-12-06T00:42:42.742Z,61.36
2022-12-06T00:44:14.079Z,56.68
2022-12-06T00:45:45.620Z,65.15
2022-12-06T00:47:16.909Z,62.07
2022-12-06T00:48:48.301Z,64.10
2022-12-06T00:50:19.617Z,62.04
2022-12-06T00:51:50.992Z,63.87
2022-12-06T00:53:22.391Z,61.88
2022-12-06T00:54:53.593Z,61.66
2022-12-06T00:56:24.950Z,56.34
2022-12-06T00:57:56.363Z,62.02
2022-12-06T00:59:27.943Z,64.21
2022-12-06T01:00:59.638Z,60.96
2022-12-06T01:02:31.314Z,74.69
2022-12-06T01:04:02.519Z,64.65
2022-12-06T01:05:33.812Z,57.24
2022-12-06T01:07:05.226Z,55.03
2022-12-06T01:08:36.520Z,58.58
2022-12-06T01:10:07.985Z,63.08
2022-12-06T01:11:40.251Z,66.12
2022-12-06T01:13:11.583Z,72.16
2022-12-06T01:14:47.753Z,69.30
2022-12-06T01:16:19.332Z,67.10
2022-12-06T01:17:51.556Z,78.44
2022-12-06T01:19:23.234Z,70.60
2022-12-06T01:20:54.644Z,74.24
2022-12-06T01:22:26.621Z,68.83
2022-12-06T01:23:59.135Z,78.33
2022-12-06T01:25:35.606Z,80.38
2022-12-06T01:27:07.590Z,91.07
2022-12-06T01:28:39.205Z,79.68
2022-12-06T01:30:10.883Z,73.71
2022-12-06T01:31:42.272Z,82.37
2022-12-06T01:33:13.835Z,75.17
2022-12-06T01:34:46.076Z,70.04
2022-12-06T01:36:17.800Z,77.10
2022-12-06T01:37:49.099Z,78.31
2022-12-06T01:39:20.597Z,67.66
2022-12-06T01:40:52.306Z,72.89
2022-12-06T01:42:23.937Z,86.58
2022-12-06T01:43:55.581Z,72.93
2022-12-06T01:45:27.028Z,60.51
2022-12-06T01:46:58.453Z,72.83
2022-12-06T01:48:30.069Z,90.07
2022-12-06T01:50:01.757Z,78.68
2022-12-06T01:51:33.406Z,55.63
2022-12-06T01:53:04.850Z,67.26
2022-12-06T01:54:36.340Z,58.97
2022-12-06T01:56:07.636Z,62.05
2022-12-06T01:57:38.980Z,68.35
2022-12-06T01:59:10.584Z,67.00
2022-12-06T02:00:41.866Z,60.66
2022-12-06T02:02:13.215Z,63.69
2022-12-06T02:03:44.770Z,50.71
2022-12-06T02:05:15.987Z,49.33
2022-12-06T02:06:47.571Z,56.19
2022-12-06T02:08:19.789Z,56.18
2022-12-06T02:09:51.343Z,54.65
2022-12-06T02:11:22.705Z,49.04
2022-12-06T02:12:54.641Z,47.55
2022-12-06T02:14:26.118Z,49.99
2022-12-06T02:15:57.737Z,46.04
2022-12-06T02:17:29.375Z,45.80
2022-12-06T02:19:00.829Z,49.13
2022-12-06T02:20:32.234Z,51.14
2022-12-06T02:22:03.598Z,48.79
2022-12-06T02:23:35.113Z,56.26
2022-12-06T02:25:07.002Z,53.80
2022-12-06T02:26:38.747Z,56.13
2022-12-06T02:28:10.168Z,58.02
2022-12-06T02:29:41.725Z,61.64
2022-12-06T02:31:13.041Z,57.44
2022-12-06T02:32:44.417Z,49.60
2022-12-06T02:34:15.941Z,48.32
2022-12-06T02:35:47.253Z,54.94
2022-12-06T02:37:18.539Z,57.15
2022-12-06T02:38:50.389Z,53.02
2022-12-06T02:40:21.800Z,53.77
2022-12-06T02:41:52.973Z,55.29
2022-12-06T02:43:24.621Z,47.68
2022-12-06T02:44:55.987Z,54.06
2022-12-06T02:46:27.340Z,51.37
2022-12-06T02:47:58.746Z,53.56
2022-12-06T02:49:29.981Z,50.68
2022-12-06T02:51:02.939Z,48.19
2022-12-06T02:52:34.443Z,47.59
2022-12-06T02:54:05.809Z,54.34
2022-12-06T02:55:37.224Z,52.62
2022-12-06T02:57:08.603Z,55.23
2022-12-06T02:58:40.249Z,58.02
2022-12-06T03:00:11.475Z,49.37
2022-12-06T03:01:42.977Z,50.16
2022-12-06T03:03:14.299Z,55.10
2022-12-06T03:04:45.816Z,55.24
2022-12-06T03:06:17.532Z,58.61
2022-12-06T03:07:48.954Z,54.79
2022-12-06T03:09:20.665Z,53.63
2022-12-06T03:10:52.161Z,52.55
2022-12-06T03:12:23.530Z,57.98
2022-12-06T03:13:55.008Z,55.66
2022-12-06T03:15:26.351Z,61.52
2022-12-06T03:16:57.536Z,50.28
2022-12-06T03:18:34.008Z,53.55
2022-12-06T03:20:05.693Z,63.50
2022-12-06T03:21:37.030Z,68.18
2022-12-06T03:23:08.283Z,64.75
2022-12-06T03:24:39.594Z,72.90
2022-12-06T03:26:11.000Z,75.90
2022-12-06T03:27:42.203Z,76.03
2022-12-06T03:29:13.680Z,79.19
2022-12-06T03:30:45.338Z,79.96
2022-12-06T03:32:16.675Z,60.34
2022-12-06T03:33:53.300Z,66.60
2022-12-06T03:35:24.650Z,76.42
2022-12-06T03:36:55.993Z,60.23
2022-12-06T03:38:27.311Z,70.74
2022-12-06T03:39:58.868Z,65.76
2022-12-06T03:41:32.380Z,67.45
2022-12-06T03:43:04.287Z,62.05
2022-12-06T03:44:35.550Z,56.84
2022-12-06T03:46:07.495Z,57.78
2022-12-06T03:47:38.846Z,78.12
2022-12-06T03:49:10.759Z,72.23
2022-12-06T03:50:48.472Z,61.13
2022-12-06T03:52:20.117Z,63.36
2022-12-06T03:53:53.462Z,55.93
2022-12-06T03:55:25.219Z,56.01
2022-12-06T03:56:56.741Z,59.29
2022-12-06T03:58:28.302Z,56.62
2022-12-06T04:00:00.173Z,59.27
2022-12-06T04:01:32.068Z,55.63
2022-12-06T04:03:04.026Z,50.16
2022-12-06T04:04:35.461Z,54.13
2022-12-06T04:06:06.987Z,64.59
2022-12-06T04:07:38.379Z,52.90
2022-12-06T04:09:09.643Z,55.69
2022-12-06T04:10:41.070Z,57.37
2022-12-06T04:12:12.495Z,64.61
2022-12-06T04:13:43.886Z,56.30
2022-12-06T04:15:15.277Z,52.89
2022-12-06T04:16:46.929Z,58.35
2022-12-06T04:18:18.258Z,59.86
2022-12-06T04:19:52.190Z,65.28
2022-12-06T04:21:23.578Z,55.44
2022-12-06T04:22:54.784Z,70.21
2022-12-06T04:24:26.184Z,70.65
2022-12-06T04:25:57.388Z,83.32
2022-12-06T04:27:28.597Z,67.39
2022-12-06T04:28:59.840Z,61.77
2022-12-06T04:30:31.235Z,75.31
2022-12-06T04:32:02.561Z,70.54
2022-12-06T04:33:33.920Z,69.20
2022-12-06T04:35:05.237Z,84.33
2022-12-06T04:36:36.519Z,82.64
2022-12-06T04:38:07.711Z,85.98
2022-12-06T04:39:38.856Z,71.21
2022-12-06T04:41:09.979Z,85.00
2022-12-06T04:42:41.182Z,83.17
2022-12-06T04:44:12.653Z,83.32
2022-12-06T04:45:44.040Z,60.36
2022-12-06T04:47:15.358Z,77.32
2022-12-06T04:48:47.123Z,78.40
2022-12-06T04:50:18.438Z,94.52
2022-12-06T04:51:49.735Z,126.94
2022-12-06T04:53:21.025Z,99.33
2022-12-06T04:54:52.219Z,85.63
2022-12-06T04:56:23.608Z,118.76
2022-12-06T04:57:55.237Z,92.21
2022-12-06T04:59:26.610Z,85.82
2022-12-06T05:00:58.164Z,101.36
2022-12-06T05:02:29.639Z,96.86
2022-12-06T05:04:01.612Z,90.02
2022-12-06T05:05:33.045Z,129.75
2022-12-06T05:07:04.450Z,107.60
2022-12-06T05:08:35.787Z,79.02
2022-12-06T05:10:07.053Z,89.80
2022-12-06T05:11:38.491Z,112.58
2022-12-06T05:13:10.377Z,120.49
2022-12-06T05:14:41.999Z,100.42
2022-12-06T05:16:13.318Z,96.97
2022-12-06T05:17:44.594Z,82.17
2022-12-06T05:19:16.266Z,87.32
2022-12-06T05:20:57.789Z,76.39
2022-12-06T05:22:29.050Z,81.67
2022-12-06T05:24:00.659Z,89.50
2022-12-06T05:25:32.072Z,98.18
2022-12-06T05:27:03.750Z,78.42
2022-12-06T05:28:35.347Z,87.17
2022-12-06T05:30:06.617Z,72.40
2022-12-06T05:31:37.877Z,86.01
2022-12-06T05:33:09.329Z,77.26
2022-12-06T05:34:45.766Z,73.98
2022-12-06T05:36:17.293Z,72.99
2022-12-06T05:38:03.702Z,93.52
2022-12-06T05:39:35.861Z,86.06
2022-12-06T05:41:07.110Z,71.04
2022-12-06T05:42:38.449Z,79.81
2022-12-06T05:44:09.937Z,83.85
2022-12-06T05:45:41.588Z,83.35
2022-12-06T05:47:13.256Z,90.32
2022-12-06T05:48:44.696Z,119.24
2022-12-06T05:50:16.146Z,110.00
2022-12-06T05:51:47.423Z,100.52
2022-12-06T05:53:18.935Z,100.99
2022-12-06T05:54:50.519Z,115.72
2022-12-06T05:56:22.226Z,129.69
2022-12-06T05:58:05.568Z,84.49
2022-12-06T05:59:37.634Z,77.27
2022-12-06T06:01:08.790Z,78.38
2022-12-06T06:02:40.343Z,79.69
2022-12-06T06:04:11.880Z,77.70
2022-12-06T06:05:43.180Z,80.80
2022-12-06T06:07:14.740Z,107.69
2022-12-06T06:08:46.069Z,90.67
2022-12-06T06:10:22.457Z,90.14
2022-12-06T06:11:53.782Z,88.34
2022-12-06T06:13:51.437Z,94.54
2022-12-06T06:15:23.101Z,87.48
2022-12-06T06:16:55.924Z,85.41
2022-12-06T06:18:41.691Z,84.41
2022-12-06T06:20:35.705Z,92.87
2022-12-06T06:22:12.383Z,100.84
2022-12-06T06:23:44.182Z,107.77
2022-12-06T06:25:15.505Z,108.21
2022-12-06T06:26:46.810Z,98.50
2022-12-06T06:28:32.334Z,107.30
2022-12-06T06:30:03.949Z,97.27
2022-12-06T06:31:35.822Z,141.47
2022-12-06T06:33:07.432Z,108.33
2022-12-06T06:34:39.081Z,97.01
2022-12-06T06:36:10.360Z,126.36
2022-12-06T06:37:41.670Z,111.67
2022-12-06T06:39:13.070Z,125.81
2022-12-06T06:40:44.397Z,139.62
2022-12-06T06:42:15.723Z,104.24
2022-12-06T06:43:47.045Z,104.64
2022-12-06T06:45:19.878Z,152.32
2022-12-06T06:46:52.823Z,135.87
2022-12-06T06:48:24.156Z,101.14
2022-12-06T06:49:55.861Z,108.34
2022-12-06T06:51:27.438Z,121.57
2022-12-06T06:52:58.886Z,134.30
2022-12-06T06:54:30.499Z,106.65
2022-12-06T06:56:01.985Z,122.49
2022-12-06T06:57:33.309Z,134.54
2022-12-06T06:59:04.758Z,100.42
2022-12-06T07:00:36.202Z,90.98
2022-12-06T07:02:07.814Z,83.39
2022-12-06T07:03:40.013Z,87.98
2022-12-06T07:05:11.490Z,92.87
2022-12-06T07:06:42.931Z,112.90
2022-12-06T07:08:14.552Z,138.62
2022-12-06T07:09:48.151Z,114.12
2022-12-06T07:11:19.752Z,104.29
2022-12-06T07:12:51.073Z,100.19
2022-12-06T07:14:22.328Z,111.37
2022-12-06T07:15:54.147Z,126.71
2022-12-06T07:17:25.865Z,124.49
2022-12-06T07:18:57.177Z,106.34
2022-12-06T07:20:28.571Z,128.12
2022-12-06T07:21:59.979Z,108.02
2022-12-06T07:23:31.761Z,101.02
2022-12-06T07:25:03.508Z,111.55
2022-12-06T07:26:35.078Z,120.09
2022-12-06T07:28:06.511Z,119.24
2022-12-06T07:29:38.245Z,96.62
2022-12-06T07:31:09.818Z,113.38
2022-12-06T07:32:41.200Z,147.35
2022-12-06T07:34:12.639Z,148.68
2022-12-06T07:36:10.468Z,119.08
2022-12-06T07:37:43.365Z,100.03
2022-12-06T07:39:15.285Z,109.19
2022-12-06T07:41:04.873Z,123.42
2022-12-06T07:42:36.861Z,145.89
2022-12-06T07:44:08.099Z,113.53
2022-12-06T07:45:39.577Z,135.36
2022-12-06T07:47:10.929Z,105.96
2022-12-06T07:48:43.077Z,121.56
2022-12-06T07:50:17.852Z,110.49
2022-12-06T07:51:49.791Z,151.31
2022-12-06T07:53:21.112Z,99.02
2022-12-06T07:54:52.555Z,116.01
2022-12-06T07:56:23.927Z,129.13
2022-12-06T07:57:55.558Z,115.21
2022-12-06T07:59:27.145Z,123.07
2022-12-06T08:00:58.744Z,134.49
2022-12-06T08:02:30.281Z,139.05
2022-12-06T08:04:01.863Z,161.13
2022-12-06T08:05:33.106Z,141.23
2022-12-06T08:07:04.313Z,135.53
2022-12-06T08:08:35.587Z,159.57
2022-12-06T08:10:07.297Z,142.10
2022-12-06T08:11:38.497Z,111.89
2022-12-06T08:13:09.913Z,107.28
2022-12-06T08:14:41.736Z,127.86
2022-12-06T08:16:13.377Z,104.11
2022-12-06T08:17:44.738Z,91.02
2022-12-06T08:19:16.069Z,91.29
2022-12-06T08:20:57.584Z,101.68
2022-12-06T08:22:28.907Z,88.37
2022-12-06T08:24:00.644Z,91.98
2022-12-06T08:25:32.080Z,101.54
2022-12-06T08:27:03.270Z,87.19
2022-12-06T08:28:34.597Z,101.57
2022-12-06T08:30:05.918Z,97.24
2022-12-06T08:31:37.432Z,80.47
2022-12-06T08:33:09.258Z,93.65
2022-12-06T08:34:40.771Z,88.46
2022-12-06T08:36:12.131Z,90.80
2022-12-06T08:37:43.448Z,88.29
2022-12-06T08:39:14.585Z,91.53
2022-12-06T08:40:45.935Z,82.33
2022-12-06T08:42:27.140Z,76.47
2022-12-06T08:43:58.850Z,76.38
2022-12-06T08:45:30.197Z,91.34
2022-12-06T08:47:02.191Z,96.99
2022-12-06T08:48:35.313Z,89.35
2022-12-06T08:50:09.721Z,88.99
2022-12-06T08:51:41.084Z,85.70
2022-12-06T08:53:12.680Z,85.13
2022-12-06T08:54:44.106Z,85.73
2022-12-06T08:56:15.536Z,109.21
2022-12-06T08:57:46.791Z,93.00
2022-12-06T08:59:18.402Z,84.89
2022-12-06T09:00:49.744Z,90.93
2022-12-06T09:02:21.286Z,88.41
2022-12-06T09:03:52.553Z,86.87
2022-12-06T09:05:23.982Z,86.58
2022-12-06T09:06:55.354Z,88.18
2022-12-06T09:08:26.629Z,89.94
2022-12-06T09:09:58.313Z,86.08
2022-12-06T09:11:29.729Z,86.10
2022-12-06T09:13:01.175Z,84.81
2022-12-06T09:14:32.365Z,83.77
2022-12-06T09:16:03.819Z,78.04
2022-12-06T09:17:35.177Z,78.49
2022-12-06T09:19:06.614Z,84.18
2022-12-06T09:20:38.180Z,78.08
2022-12-06T09:22:09.470Z,74.05
2022-12-06T09:23:40.807Z,74.28
2022-12-06T09:25:12.097Z,82.47
2022-12-06T09:26:43.336Z,76.71
2022-12-06T09:28:14.720Z,71.69
2022-12-06T09:29:46.036Z,68.34
2022-12-06T09:31:17.639Z,74.52
2022-12-06T09:32:48.953Z,65.96
2022-12-06T09:34:20.349Z,69.05
2022-12-06T09:35:51.636Z,62.94
2022-12-06T09:37:23.064Z,62.38
2022-12-06T09:38:54.699Z,66.16
2022-12-06T09:40:26.409Z,67.23
2022-12-06T09:41:57.631Z,62.37
2022-12-06T09:43:28.927Z,60.78
2022-12-06T09:45:00.694Z,62.06
2022-12-06T09:46:32.328Z,60.00
2022-12-06T09:48:03.665Z,56.46
2022-12-06T09:49:34.944Z,52.75
2022-12-06T09:51:06.165Z,59.91
2022-12-06T09:52:37.739Z,59.58
2022-12-06T09:54:09.072Z,53.43
2022-12-06T09:55:40.306Z,50.93
2022-12-06T09:59:50.920Z,50.65
2022-12-06T10:01:22.352Z,50.35
2022-12-06T10:02:58.914Z,51.35
2022-12-06T10:05:16.270Z,47.47
2022-12-06T10:06:47.641Z,52.34
2022-12-06T10:08:19.151Z,51.52
2022-12-06T10:09:50.453Z,50.16
2022-12-06T10:11:21.991Z,51.25
2022-12-06T10:12:53.537Z,47.80
2022-12-06T10:14:24.952Z,50.48
2022-12-06T10:15:56.508Z,52.86
2022-12-06T10:17:27.919Z,52.64
2022-12-06T10:18:59.175Z,52.53
2022-12-06T10:20:30.483Z,54.84
2022-12-06T10:22:02.064Z,48.87
2022-12-06T10:23:33.415Z,49.23
2022-12-06T10:25:04.603Z,45.90
2022-12-06T10:26:35.788Z,45.31
2022-12-06T10:28:07.226Z,39.64
2022-12-06T10:29:38.677Z,43.79
2022-12-06T10:31:10.199Z,42.35
2022-12-06T10:32:41.826Z,39.59
2022-12-06T10:34:13.144Z,39.25
2022-12-06T10:35:44.646Z,45.17
2022-12-06T10:37:16.627Z,45.23
2022-12-06T10:38:48.049Z,46.33
2022-12-06T10:40:19.381Z,42.19
2022-12-06T10:41:50.765Z,43.78
2022-12-06T10:43:22.763Z,41.14
2022-12-06T10:44:54.146Z,34.84
2022-12-06T10:46:25.508Z,36.53
2022-12-06T10:47:57.124Z,32.34
2022-12-06T10:49:28.452Z,31.36
2022-12-06T10:51:01.166Z,36.38
2022-12-06T10:52:32.548Z,37.00
2022-12-06T10:54:03.834Z,35.58
2022-12-06T10:55:35.084Z,35.55
2022-12-06T10:57:06.341Z,36.12
2022-12-06T10:58:37.737Z,36.20
2022-12-06T11:00:14.661Z,32.96
2022-12-06T11:01:46.713Z,31.84
2022-12-06T11:03:18.024Z,29.49
2022-12-06T11:04:49.763Z,28.80
2022-12-06T11:06:21.018Z,31.77
2022-12-06T11:07:52.312Z,28.80
2022-12-06T11:09:23.669Z,29.06
2022-12-06T11:10:55.013Z,29.27
2022-12-06T11:12:30.930Z,28.14
2022-12-06T11:14:02.752Z,29.81
2022-12-06T11:15:56.793Z,27.58
2022-12-06T11:17:28.477Z,25.06
2022-12-06T11:19:00.160Z,28.63
2022-12-06T11:20:31.400Z,27.85
2022-12-06T11:22:02.704Z,30.20
2022-12-06T11:23:34.004Z,32.37
2022-12-06T11:25:05.340Z,39.04
2022-12-06T11:26:36.692Z,37.86
2022-12-06T11:28:08.499Z,34.19
2022-12-06T11:29:39.779Z,30.09
2022-12-06T11:31:11.047Z,28.89
2022-12-06T11:32:42.383Z,27.85
2022-12-06T11:34:13.595Z,28.43
2022-12-06T11:35:44.967Z,28.35
2022-12-06T11:37:16.494Z,26.31
2022-12-06T11:38:47.659Z,27.03
2022-12-06T11:40:18.986Z,27.27
2022-12-06T11:41:50.280Z,27.20
2022-12-06T11:43:21.739Z,26.03
2022-12-06T11:44:52.978Z,24.53
2022-12-06T11:46:24.588Z,27.29
2022-12-06T11:47:55.875Z,28.24
2022-12-06T11:49:27.634Z,28.71
2022-12-06T11:50:58.867Z,28.86
2022-12-06T11:52:30.637Z,26.63
2022-12-06T11:54:01.863Z,27.48
2022-12-06T11:55:41.103Z,24.71
2022-12-06T11:57:35.666Z,22.22
2022-12-06T11:59:07.068Z,25.59
2022-12-06T12:00:39.530Z,26.87
2022-12-06T12:02:14.098Z,25.07
2022-12-06T12:03:49.297Z,23.04
2022-12-06T12:05:20.987Z,21.86
2022-12-06T12:06:52.155Z,23.98
2022-12-06T12:08:27.231Z,22.91
2022-12-06T12:10:01.080Z,21.25
2022-12-06T12:11:32.439Z,21.76
2022-12-06T12:13:03.643Z,19.44
2022-12-06T12:14:34.837Z,20.38
2022-12-06T12:16:11.170Z,20.98
2022-12-06T12:17:42.771Z,19.90
2022-12-06T12:19:14.004Z,19.15
2022-12-06T12:20:45.258Z,18.16
2022-12-06T12:22:16.639Z,21.76
2022-12-06T12:23:48.075Z,21.44
2022-12-06T12:25:20.088Z,20.01
2022-12-06T12:26:51.683Z,18.23
2022-12-06T12:28:22.934Z,20.86
2022-12-06T12:29:54.175Z,17.91
2022-12-06T12:31:25.493Z,18.17
2022-12-06T12:32:56.761Z,17.56
2022-12-06T12:34:28.037Z,19.53
2022-12-06T12:35:59.486Z,19.09
2022-12-06T12:37:30.930Z,19.31
2022-12-06T12:39:02.189Z,18.93
2022-12-06T12:40:33.619Z,17.86
2022-12-06T12:42:05.034Z,21.12
2022-12-06T12:43:36.239Z,18.66
2022-12-06T12:45:07.426Z,20.03
2022-12-06T12:46:38.643Z,21.95
2022-12-06T12:48:09.908Z,25.39
2022-12-06T12:49:42.562Z,32.02
2022-12-06T12:51:13.818Z,32.18
2022-12-06T12:52:45.002Z,34.45
2022-12-06T12:54:16.620Z,31.97
2022-12-06T12:55:48.102Z,28.86
2022-12-06T12:57:19.624Z,25.82
2022-12-06T12:58:51.075Z,25.64
2022-12-06T13:00:22.328Z,26.77
2022-12-06T13:01:53.705Z,22.00
2022-12-06T13:05:33.351Z,21.66
2022-12-06T13:07:05.701Z,22.52
2022-12-06T13:08:37.068Z,21.07
2022-12-06T13:10:08.651Z,21.55
2022-12-06T13:11:39.837Z,21.05
2022-12-06T13:13:11.162Z,18.24
2022-12-06T13:14:42.840Z,19.79
2022-12-06T13:16:14.212Z,18.99
2022-12-06T13:17:45.526Z,18.77
2022-12-06T13:19:16.775Z,18.08
2022-12-06T13:20:48.456Z,17.65
2022-12-06T13:22:19.991Z,14.71
2022-12-06T13:23:51.244Z,13.98
2022-12-06T13:25:22.658Z,14.64
2022-12-06T13:26:54.175Z,10.23
2022-12-06T13:28:25.521Z,10.48
2022-12-06T13:29:56.791Z,13.62
2022-12-06T13:31:28.219Z,14.86
2022-12-06T13:32:59.498Z,12.67
2022-12-06T13:34:36.046Z,12.40
2022-12-06T13:36:08.783Z,11.30
2022-12-06T13:37:46.312Z,8.65
2022-12-06T13:39:22.891Z,10.54
2022-12-06T13:40:54.246Z,9.96
2022-12-06T13:42:25.799Z,9.54
2022-12-06T13:43:57.165Z,10.64
2022-12-06T13:45:28.805Z,11.57
2022-12-06T13:47:00.174Z,11.36
2022-12-06T13:48:32.226Z,8.48
2022-12-06T13:50:03.769Z,9.40
2022-12-06T13:51:35.248Z,10.50
2022-12-06T13:53:06.458Z,9.84
2022-12-06T13:54:37.964Z,10.36
2022-12-06T13:56:09.439Z,10.40
2022-12-06T13:57:40.624Z,12.42
2022-12-06T13:59:11.868Z,13.33
2022-12-06T14:00:43.292Z,12.46
2022-12-06T14:02:14.539Z,9.89
2022-12-06T14:03:45.884Z,10.75
2022-12-06T14:05:17.087Z,8.62
2022-12-06T14:06:48.259Z,8.70
2022-12-06T14:08:19.587Z,10.56
2022-12-06T14:09:50.901Z,8.71
2022-12-06T14:11:22.345Z,8.42
2022-12-06T14:12:53.696Z,7.38
2022-12-06T14:14:24.969Z,9.06
2022-12-06T14:15:56.189Z,8.68
2022-12-06T14:18:00.282Z,8.67
2022-12-06T14:19:33.831Z,8.69
2022-12-06T14:21:05.069Z,8.44
2022-12-06T14:22:36.277Z,8.93
2022-12-06T14:24:07.516Z,7.80
2022-12-06T14:25:44.632Z,8.70
2022-12-06T14:27:16.056Z,7.61
2022-12-06T14:28:47.413Z,8.73
2022-12-06T14:30:24.926Z,9.35
2022-12-06T14:31:57.197Z,8.79
2022-12-06T14:33:28.596Z,8.66
2022-12-06T14:34:59.798Z,9.59
2022-12-06T14:36:31.150Z,8.16
2022-12-06T14:38:02.479Z,8.67
2022-12-06T14:39:33.843Z,8.19
2022-12-06T14:41:05.085Z,9.35
2022-12-06T14:42:36.412Z,7.64
2022-12-06T14:44:07.619Z,8.30
2022-12-06T14:45:39.092Z,8.74
2022-12-06T14:47:10.608Z,7.53
2022-12-06T14:48:41.873Z,9.20
2022-12-06T14:50:13.174Z,9.12
2022-12-06T14:51:44.375Z,9.19
2022-12-06T14:53:15.688Z,9.44
2022-12-06T14:54:46.876Z,10.28
2022-12-06T14:56:18.224Z,9.12
2022-12-06T14:57:49.695Z,9.68
2022-12-06T14:59:47.451Z,10.34
2022-12-06T15:01:42.542Z,12.06
2022-12-06T15:03:13.877Z,10.16
2022-12-06T15:04:45.341Z,10.17
2022-12-06T15:06:16.773Z,9.88
2022-12-06T15:07:48.285Z,10.89
2022-12-06T15:09:19.675Z,11.70
2022-12-06T15:10:51.182Z,13.15
2022-12-06T15:12:22.358Z,11.90
2022-12-06T15:13:53.589Z,11.09
2022-12-06T15:15:24.789Z,10.79
2022-12-06T15:16:56.140Z,10.56
2022-12-06T15:18:27.494Z,10.12
2022-12-06T15:19:59.428Z,10.89
2022-12-06T15:21:31.168Z,9.51
2022-12-06T15:23:02.564Z,10.81
2022-12-06T15:24:33.816Z,9.42
2022-12-06T15:26:05.022Z,10.21
2022-12-06T15:27:36.703Z,10.23
2022-12-06T15:29:07.901Z,10.29
2022-12-06T15:30:39.138Z,10.33
2022-12-06T15:32:10.387Z,9.99
2022-12-06T15:33:41.603Z,11.28
2022-12-06T15:35:12.818Z,10.70
2022-12-06T15:36:44.114Z,10.97
2022-12-06T15:38:15.567Z,10.94
2022-12-06T15:39:46.892Z,9.94
2022-12-06T15:41:23.164Z,9.60
2022-12-06T15:42:59.069Z,10.43
2022-12-06T15:44:33.282Z,9.94
2022-12-06T15:46:09.568Z,11.18
2022-12-06T15:47:40.798Z,10.25
2022-12-06T15:49:12.168Z,11.95
2022-12-06T15:50:43.897Z,12.51
2022-12-06T15:52:15.471Z,12.33
2022-12-06T15:53:46.757Z,13.16
2022-12-06T15:55:18.059Z,14.43
2022-12-06T15:56:49.282Z,14.86
2022-12-06T15:58:20.871Z,13.57
2022-12-06T15:59:52.554Z,11.91
2022-12-06T16:01:24.047Z,12.82
2022-12-06T16:02:55.648Z,14.68
2022-12-06T16:04:27.361Z,12.48
2022-12-06T16:06:03.843Z,14.66
2022-12-06T16:07:35.328Z,15.06
2022-12-06T16:09:06.539Z,13.66
2022-12-06T16:11:10.238Z,13.11
2022-12-06T16:12:42.396Z,14.47
2022-12-06T16:14:13.727Z,14.86
2022-12-06T16:15:45.006Z,13.52
2022-12-06T16:17:16.234Z,15.28
2022-12-06T16:18:47.509Z,15.68
2022-12-06T16:20:18.938Z,13.73
2022-12-06T16:21:50.193Z,16.60
2022-12-06T16:23:21.758Z,14.62
2022-12-06T16:24:58.102Z,14.50
2022-12-06T16:26:34.650Z,15.15
2022-12-06T16:28:06.051Z,14.23
2022-12-06T16:29:37.220Z,15.30
2022-12-06T16:31:08.470Z,15.19
2022-12-06T16:32:39.732Z,15.08
2022-12-06T16:34:10.948Z,14.70
2022-12-06T16:35:42.221Z,13.64
2022-12-06T16:37:13.536Z,13.77
2022-12-06T16:38:44.763Z,14.37
2022-12-06T16:40:16.331Z,14.80
2022-12-06T16:41:48.116Z,12.61
2022-12-06T16:43:20.051Z,14.66
2022-12-06T16:44:51.748Z,13.33
2022-12-06T16:46:23.083Z,14.32
2022-12-06T16:47:54.788Z,14.58
2022-12-06T16:49:45.177Z,15.07
2022-12-06T16:51:17.639Z,16.79
2022-12-06T16:52:49.456Z,15.65
2022-12-06T16:54:20.678Z,18.97
2022-12-06T16:55:53.160Z,17.04
2022-12-06T16:57:24.441Z,17.17
2022-12-06T16:58:55.938Z,14.78
2022-12-06T17:00:27.540Z,16.54
2022-12-06T17:01:58.913Z,17.19
2022-12-06T17:03:30.262Z,18.45
2022-12-06T17:05:02.352Z,16.88
2022-12-06T17:06:33.939Z,17.09
2022-12-06T17:08:05.323Z,15.81
2022-12-06T17:09:36.700Z,17.72
2022-12-06T17:11:08.003Z,15.35
2022-12-06T17:12:39.556Z,15.34
2022-12-06T17:14:10.759Z,14.00
2022-12-06T17:15:42.102Z,14.67
2022-12-06T17:17:13.299Z,15.58
2022-12-06T17:18:44.490Z,15.55
2022-12-06T17:20:15.810Z,17.25
2022-12-06T17:21:47.388Z,17.20
2022-12-06T17:23:18.709Z,17.43
2022-12-06T17:24:50.218Z,18.48
2022-12-06T17:26:21.681Z,18.94
2022-12-06T17:27:52.905Z,17.92
2022-12-06T17:29:24.350Z,18.56
2022-12-06T17:30:56.216Z,16.12
2022-12-06T17:32:37.655Z,16.52
2022-12-06T17:34:10.403Z,18.35
2022-12-06T17:35:46.699Z,16.64
2022-12-06T17:37:17.936Z,18.83
2022-12-06T17:38:49.654Z,17.61
2022-12-06T17:40:20.989Z,15.13
2022-12-06T17:41:52.399Z,15.77
2022-12-06T17:43:24.834Z,17.67
2022-12-06T17:44:56.257Z,19.55
2022-12-06T17:46:27.743Z,19.41
2022-12-06T17:47:58.951Z,18.22
2022-12-06T17:49:30.699Z,17.37
2022-12-06T17:51:01.917Z,16.00
2022-12-06T17:52:33.540Z,15.39
2022-12-06T17:54:09.198Z,14.40
2022-12-06T17:55:40.823Z,16.90
2022-12-06T17:57:12.308Z,16.77
2022-12-06T17:58:43.511Z,17.95
2022-12-06T18:00:14.819Z,17.65
2022-12-06T18:02:13.426Z,17.70
2022-12-06T18:03:45.736Z,15.99
2022-12-06T18:05:16.979Z,16.15
2022-12-06T18:06:48.257Z,15.95
2022-12-06T18:08:20.195Z,16.24
2022-12-06T18:09:52.322Z,14.77
2022-12-06T18:11:24.301Z,16.78
2022-12-06T18:12:57.727Z,17.02
2022-12-06T18:14:38.034Z,17.34
2022-12-06T18:16:09.461Z,15.63
2022-12-06T18:17:41.072Z,15.71
2022-12-06T18:19:12.577Z,16.70
2022-12-06T18:20:43.931Z,17.41
2022-12-06T18:22:15.872Z,17.41
2022-12-06T18:24:13.086Z,15.78
2022-12-06T18:25:51.400Z,16.59
2022-12-06T18:27:22.605Z,18.02
2022-12-06T18:28:54.137Z,20.06
2022-12-06T18:30:25.764Z,19.49
2022-12-06T18:32:21.938Z,18.91
2022-12-06T18:34:26.907Z,16.99
2022-12-06T18:36:01.956Z,17.36
2022-12-06T18:38:03.263Z,17.04
2022-12-06T18:39:56.432Z,16.71
2022-12-06T18:41:27.866Z,17.84
2022-12-06T18:43:38.902Z,15.93
2022-12-06T18:45:10.098Z,16.78
2022-12-06T18:47:14.953Z,16.43
2022-12-06T18:48:46.258Z,15.65
2022-12-06T18:50:17.516Z,14.17
2022-12-06T18:51:48.729Z,17.85
2022-12-06T18:53:20.060Z,15.60
2022-12-06T18:54:51.265Z,16.23
2022-12-06T18:56:22.396Z,14.97
2022-12-06T18:57:53.693Z,14.57
2022-12-06T18:59:28.248Z,13.65
2022-12-06T19:01:09.829Z,16.78
2022-12-06T19:02:41.236Z,18.55
2022-12-06T19:04:12.675Z,16.07
2022-12-06T19:06:02.445Z,15.30
2022-12-06T19:07:39.652Z,14.82
2022-12-06T19:09:32.780Z,14.50
2022-12-06T19:11:04.698Z,13.95
2022-12-06T19:12:43.469Z,16.81
2022-12-06T19:14:14.712Z,15.49
2022-12-06T19:15:46.066Z,15.50
2022-12-06T19:17:22.490Z,15.81
2022-12-06T19:19:11.446Z,13.22
2022-12-06T19:20:57.760Z,15.38
2022-12-06T19:22:41.019Z,15.71
2022-12-06T19:24:35.844Z,14.43
2022-12-06T19:26:07.161Z,16.03
2022-12-06T19:28:13.520Z,13.67
2022-12-06T19:30:12.740Z,14.62
2022-12-06T19:32:00.778Z,14.08
2022-12-06T19:34:08.728Z,16.16
2022-12-06T19:35:58.660Z,16.83
2022-12-06T19:37:50.190Z,14.18
2022-12-06T19:39:21.626Z,15.60
2022-12-06T19:40:53.163Z,15.65
2022-12-06T19:42:25.001Z,14.16
2022-12-06T19:44:26.424Z,15.90
2022-12-06T19:45:57.912Z,16.45
2022-12-06T19:47:29.380Z,15.13
2022-12-06T19:49:20.833Z,15.90
2022-12-06T19:51:20.590Z,15.92
2022-12-06T19:53:01.604Z,17.13
2022-12-06T19:54:53.483Z,15.50
2022-12-06T19:56:51.134Z,16.20
2022-12-06T19:58:32.427Z,16.14
2022-12-06T20:00:33.830Z,17.50
2022-12-06T20:02:15.407Z,15.91
2022-12-06T20:03:47.255Z,18.93